createdAt,value
2022-09-03T00:00:47.048Z,100.00
2022-09-03T00:05:57.559Z,100.00
2022-09-03T00:11:09.345Z,100.00
2022-09-03T00:16:18.340Z,100.00
2022-09-03T00:21:29.231Z,100.00
2022-09-03T00:26:37.030Z,100.00
2022-09-03T00:31:44.270Z,100.00
2022-09-03T00:36:48.226Z,100.00
2022-09-03T00:42:09.393Z,100.00
2022-09-03T00:47:19.373Z,100.00
2022-09-03T00:52:38.447Z,100.00
2022-09-03T00:57:56.919Z,100.00
2022-09-03T01:03:08.791Z,100.00
2022-09-03T01:08:32.376Z,100.00
2022-09-03T01:13:42.035Z,100.00
2022-09-03T01:18:53.124Z,100.00
2022-09-03T01:24:17.852Z,100.00
2022-09-03T01:29:29.688Z,100.00
2022-09-03T01:34:45.015Z,100.00
2022-09-03T01:40:03.192Z,100.00
2022-09-03T01:45:29.861Z,100.00
2022-09-03T01:50:44.181Z,100.00
2022-09-03T01:56:08.017Z,100.00
2022-09-03T02:01:18.625Z,100.00
2022-09-03T02:06:22.356Z,100.00
2022-09-03T02:11:26.315Z,100.00
2022-09-03T02:16:35.180Z,100.00
2022-09-03T02:21:43.859Z,100.00
2022-09-03T02:26:47.917Z,100.00
2022-09-03T02:31:52.986Z,100.00
2022-09-03T02:36:56.654Z,100.00
2022-09-03T02:42:00.687Z,100.00
2022-09-03T02:47:08.045Z,100.00
2022-09-03T02:52:12.350Z,100.00
2022-09-03T02:57:18.433Z,100.00
2022-09-03T03:02:32.503Z,100.00
2022-09-03T03:07:41.387Z,100.00
2022-09-03T03:12:45.458Z,100.00
2022-09-03T03:17:50.547Z,100.00
2022-09-03T03:22:54.290Z,100.00
2022-09-03T03:27:58.207Z,100.00
2022-09-03T03:33:03.834Z,100.00
2022-09-03T03:38:07.345Z,100.00
2022-09-03T03:43:10.861Z,100.00
2022-09-03T03:48:15.891Z,100.00
2022-09-03T03:53:19.849Z,100.00
2022-09-03T03:58:23.784Z,100.00
2022-09-03T04:03:29.990Z,100.00
2022-09-03T04:08:37.020Z,100.00
2022-09-03T04:13:42.342Z,100.00
2022-09-03T04:18:49.238Z,100.00
2022-09-03T04:23:54.293Z,100.00
2022-09-03T04:28:58.248Z,100.00
2022-09-03T04:34:05.750Z,100.00
2022-09-03T04:39:09.393Z,100.00
2022-09-03T04:44:13.093Z,100.00
2022-09-03T04:49:18.091Z,100.00
2022-09-03T04:54:21.608Z,100.00
2022-09-03T04:59:25.162Z,100.00
2022-09-03T05:04:30.035Z,100.00
2022-09-03T05:09:35.004Z,100.00
2022-09-03T05:14:39.023Z,100.00
2022-09-03T05:19:43.913Z,100.00
2022-09-03T05:24:48.611Z,100.00
2022-09-03T05:29:52.417Z,100.00
2022-09-03T05:34:57.400Z,100.00
2022-09-03T05:40:01.022Z,100.00
2022-09-03T05:45:08.426Z,100.00
2022-09-03T05:50:13.622Z,100.00
2022-09-03T05:55:17.291Z,100.00
2022-09-03T06:00:23.597Z,100.00
2022-09-03T06:05:29.168Z,100.00
2022-09-03T06:10:40.683Z,100.00
2022-09-03T06:15:44.649Z,100.00
2022-09-03T06:20:57.241Z,100.00
2022-09-03T06:26:05.314Z,100.00
2022-09-03T06:31:11.692Z,100.00
2022-09-03T06:36:18.772Z,100.00
2022-09-03T06:41:25.053Z,100.00
2022-09-03T06:46:28.613Z,100.00
2022-09-03T06:51:34.754Z,100.00
2022-09-03T06:56:40.840Z,100.00
2022-09-03T07:01:46.315Z,92.05
2022-09-03T07:06:52.039Z,83.86
2022-09-03T07:11:56.236Z,82.54
2022-09-03T07:16:59.864Z,77.74
2022-09-03T07:22:06.176Z,76.46
2022-09-03T07:27:14.828Z,75.11
2022-09-03T07:32:19.411Z,75.92
2022-09-03T07:37:25.086Z,73.36
2022-09-03T07:42:29.405Z,72.89
2022-09-03T07:47:35.010Z,66.94
2022-09-03T07:52:41.472Z,63.20
2022-09-03T07:57:45.734Z,61.32
2022-09-03T08:02:50.302Z,58.45
2022-09-03T08:08:00.894Z,58.78
2022-09-03T08:13:07.199Z,57.17
2022-09-03T08:18:12.478Z,56.92
2022-09-03T08:23:17.504Z,54.91
2022-09-03T08:28:20.993Z,55.00
2022-09-03T08:33:38.147Z,54.00
2022-09-03T08:38:46.223Z,53.58
2022-09-03T08:44:05.316Z,53.92
2022-09-03T08:49:13.787Z,51.00
2022-09-03T08:54:20.212Z,51.98
2022-09-03T08:59:25.305Z,50.60
2022-09-03T09:04:47.795Z,49.45
2022-09-03T09:10:01.747Z,47.66
2022-09-03T09:15:11.212Z,49.57
2022-09-03T09:20:26.498Z,49.00
2022-09-03T09:25:32.962Z,48.68
2022-09-03T09:30:37.413Z,46.77
2022-09-03T09:35:43.151Z,45.65
2022-09-03T09:40:49.542Z,49.45
2022-09-03T09:45:56.060Z,47.47
2022-09-03T09:51:08.546Z,48.47
2022-09-03T09:56:24.072Z,48.14
2022-09-03T10:01:30.506Z,49.06
2022-09-03T10:06:52.364Z,48.77
2022-09-03T10:12:06.898Z,46.98
2022-09-03T10:17:19.862Z,47.96
2022-09-03T10:22:26.445Z,48.22
2022-09-03T10:27:41.120Z,47.65
2022-09-03T10:32:49.438Z,47.50
2022-09-03T10:38:06.733Z,45.64
2022-09-03T10:43:39.612Z,45.69
2022-09-03T10:49:20.163Z,46.90
2022-09-03T10:54:37.869Z,44.90
2022-09-03T10:59:57.409Z,46.32
2022-09-03T11:05:06.194Z,43.87
2022-09-03T11:10:18.020Z,45.74
2022-09-03T11:15:30.097Z,43.82
2022-09-03T11:20:35.783Z,42.59
2022-09-03T11:25:45.940Z,41.67
2022-09-03T11:31:06.687Z,41.01
2022-09-03T11:36:10.692Z,42.64
2022-09-03T11:41:16.426Z,41.53
2022-09-03T11:46:32.189Z,41.24
2022-09-03T11:51:38.655Z,41.19
2022-09-03T11:56:43.598Z,40.92
2022-09-03T12:01:53.569Z,40.00
2022-09-03T12:07:11.627Z,41.10
2022-09-03T12:12:30.655Z,40.18
2022-09-03T12:17:46.242Z,41.53
2022-09-03T12:22:50.327Z,41.52
2022-09-03T12:27:54.741Z,41.97
2022-09-03T12:33:07.524Z,40.75
2022-09-03T12:38:18.585Z,40.46
2022-09-03T12:43:49.763Z,40.23
2022-09-03T12:54:30.309Z,42.72
2022-09-03T12:59:38.630Z,41.34
2022-09-03T13:04:45.902Z,42.00
2022-09-03T13:09:50.004Z,40.57
2022-09-03T13:14:54.160Z,39.80
2022-09-03T13:20:22.781Z,39.27
2022-09-03T13:25:35.336Z,40.35
2022-09-03T13:30:49.833Z,40.92
2022-09-03T13:36:02.231Z,41.10
2022-09-03T13:41:15.087Z,40.32
2022-09-03T13:46:25.945Z,41.47
2022-09-03T13:51:34.200Z,42.08
2022-09-03T13:56:52.266Z,43.25
2022-09-03T14:02:09.166Z,42.06
2022-09-03T14:07:23.439Z,43.40
2022-09-03T14:12:42.654Z,42.62
2022-09-03T14:17:51.501Z,47.21
2022-09-03T14:23:03.895Z,51.56
2022-09-03T14:28:16.254Z,45.42
2022-09-03T14:33:28.226Z,46.84
2022-09-03T14:38:59.199Z,47.06
2022-09-03T14:44:32.304Z,55.97
2022-09-03T14:49:59.166Z,57.43
2022-09-03T14:55:29.141Z,59.42
2022-09-03T15:00:39.222Z,59.90
2022-09-03T15:06:07.206Z,59.33
2022-09-03T15:11:17.723Z,65.08
2022-09-03T15:16:40.078Z,71.20
2022-09-03T15:22:03.804Z,70.72
2022-09-03T15:27:29.337Z,73.93
2022-09-03T15:32:51.193Z,77.82
2022-09-03T15:37:58.612Z,81.90
2022-09-03T15:43:08.512Z,83.89
2022-09-03T15:48:23.642Z,86.34
2022-09-03T15:53:38.234Z,90.83
2022-09-03T15:58:50.056Z,88.53
2022-09-03T16:04:03.429Z,88.47
2022-09-03T16:09:19.606Z,96.19
2022-09-03T16:14:31.686Z,100.00
2022-09-03T16:19:42.950Z,100.00
2022-09-03T16:24:53.613Z,100.00
2022-09-03T16:30:01.846Z,100.00
2022-09-03T16:35:18.603Z,100.00
2022-09-03T16:40:33.402Z,100.00
2022-09-03T16:45:51.669Z,100.00
2022-09-03T16:51:09.774Z,100.00
2022-09-03T16:56:34.340Z,100.00
2022-09-03T17:01:55.416Z,100.00
2022-09-03T17:07:14.783Z,100.00
2022-09-03T17:12:30.011Z,100.00
2022-09-03T17:18:05.319Z,100.00
2022-09-03T17:23:25.126Z,100.00
2022-09-03T17:28:44.607Z,100.00
2022-09-03T17:34:02.822Z,100.00
2022-09-03T17:39:51.355Z,100.00
2022-09-03T17:45:10.224Z,100.00
2022-09-03T17:50:24.386Z,100.00
2022-09-03T17:55:35.310Z,100.00
2022-09-03T18:00:45.875Z,100.00
2022-09-03T18:06:01.387Z,100.00
2022-09-03T18:11:12.268Z,100.00
2022-09-03T18:16:23.061Z,100.00
2022-09-03T18:21:51.823Z,100.00
2022-09-03T18:27:18.444Z,100.00
2022-09-03T18:32:39.683Z,100.00
2022-09-03T18:38:02.424Z,100.00
2022-09-03T18:43:32.682Z,100.00
2022-09-03T18:49:00.613Z,100.00
2022-09-03T18:55:03.990Z,100.00
2022-09-03T19:00:29.031Z,100.00
2022-09-03T19:06:01.251Z,100.00
2022-09-03T19:11:29.019Z,100.00
2022-09-03T19:17:01.901Z,100.00
2022-09-03T19:22:27.935Z,100.00
2022-09-03T19:28:00.910Z,100.00
2022-09-03T19:33:32.619Z,100.00
2022-09-03T19:39:10.007Z,100.00
2022-09-03T19:44:49.816Z,100.00
2022-09-03T19:50:23.703Z,100.00
2022-09-03T19:55:48.466Z,100.00
2022-09-03T20:01:12.865Z,100.00
2022-09-03T20:06:37.065Z,100.00
2022-09-03T20:11:42.370Z,100.00
2022-09-03T20:17:01.512Z,100.00
2022-09-03T20:22:13.865Z,100.00
2022-09-03T20:27:32.286Z,100.00
2022-09-03T20:33:13.109Z,100.00
2022-09-03T20:38:30.864Z,100.00
2022-09-03T20:43:57.586Z,100.00
2022-09-03T20:49:11.296Z,100.00
2022-09-03T20:54:23.047Z,100.00
2022-09-03T20:59:39.048Z,100.00
2022-09-03T21:04:56.280Z,100.00
2022-09-03T21:10:08.928Z,100.00
2022-09-03T21:15:21.327Z,100.00
2022-09-03T21:20:38.837Z,100.00
2022-09-03T21:25:51.914Z,100.00
2022-09-03T21:31:01.727Z,100.00
2022-09-03T21:36:15.023Z,100.00
2022-09-03T21:41:29.175Z,100.00
2022-09-03T21:46:38.121Z,100.00
2022-09-03T21:51:58.876Z,100.00
2022-09-03T21:57:14.491Z,100.00
2022-09-03T22:02:24.611Z,100.00
2022-09-03T22:07:42.131Z,100.00
2022-09-03T22:12:52.698Z,100.00
2022-09-03T22:18:04.036Z,100.00
2022-09-03T22:23:14.234Z,100.00
2022-09-03T22:28:28.883Z,100.00
2022-09-03T22:33:41.321Z,100.00
2022-09-03T22:39:16.815Z,100.00
2022-09-03T22:44:38.700Z,100.00
2022-09-03T22:49:52.941Z,100.00
2022-09-03T22:55:14.080Z,100.00
2022-09-03T23:00:18.540Z,100.00
2022-09-03T23:05:33.769Z,100.00
2022-09-03T23:10:54.017Z,100.00
2022-09-03T23:16:04.424Z,100.00
2022-09-03T23:21:21.504Z,100.00
2022-09-03T23:26:33.469Z,100.00
2022-09-03T23:31:37.466Z,100.00
2022-09-03T23:37:10.684Z,100.00
2022-09-03T23:42:32.587Z,100.00
2022-09-03T23:47:42.315Z,100.00
2022-09-03T23:53:03.281Z,100.00
2022-09-03T23:58:17.070Z,100.00
